Time;durP1;ratioP1;P1;durP2;ratioP2;P2;SDS_P1;SDS_P2;PMS_P1;PMS_P2;Temp;Humidity;BMP_temperature;BMP_pressure;BME280_temperature;BME280_humidity;BME280_pressure;Samples;Min_cycle;Max_cycle;Signal;HPM_P1;HPM_P2
2023/09/22 00:02:50;;;;;;;0.10;0.10;;;;;;;-145.06;100.00;56562.44;10392556;28;20284;-73
2023/09/22 00:07:50;;;;;;;0.00;0.00;;;;;;;-145.06;100.00;56552.31;10391026;28;20026;-71
2023/09/22 00:12:51;;;;;;;0.10;0.10;;;;;;;-145.06;100.00;56546.22;10396972;28;20033;-70
2023/09/22 00:17:51;;;;;;;0.00;0.00;;;;;;;-145.06;100.00;56562.44;10395118;28;20017;-71
2023/09/22 00:22:52;;;;;;;0.10;0.10;;;;;;;-145.06;100.00;56576.63;10392434;28;20267;-71
2023/09/22 00:27:52;;;;;;;0.00;0.00;;;;;;;-145.06;100.00;56544.19;10393925;28;20022;-71
2023/09/22 00:32:53;;;;;;;0.10;0.10;;;;;;;-145.06;100.00;56544.19;10391736;28;20021;-71
2023/09/22 00:37:53;;;;;;;0.00;0.00;;;;;;;-145.06;100.00;56542.19;10399083;28;20032;-71
2023/09/22 00:43:10;;;;;;;0.10;0.10;;;;;;;-145.06;100.00;56542.19;10399559;28;20021;-71
2023/09/22 00:48:19;;;;;;;0.10;0.10;;;;;;;-145.06;100.00;56538.13;10387972;28;20049;-70
2023/09/22 00:53:20;;;;;;;0.10;0.10;;;;;;;-145.06;100.00;56566.50;10398371;28;20481;-70
2023/09/22 00:58:20;;;;;;;0.10;0.10;;;;;;;-145.06;100.00;56534.06;10396309;28;20022;-70
2023/09/22 01:03:20;;;;;;;0.10;0.10;;;;;;;-145.06;100.00;56519.88;10384629;28;20022;-70
2023/09/22 01:08:21;;;;;;;0.00;0.00;;;;;;;-145.06;100.00;56517.84;10391310;28;20014;-71
2023/09/22 01:13:21;;;;;;;0.10;0.10;;;;;;;-145.06;100.00;56534.06;10386106;28;20037;-70
2023/09/22 01:18:22;;;;;;;0.10;0.10;;;;;;;-145.06;100.00;56491.50;10385817;28;20029;-72
2023/09/22 01:23:22;;;;;;;0.10;0.10;;;;;;;-145.06;100.00;56471.25;10384078;28;20756;-70
2023/09/22 01:28:23;;;;;;;0.00;0.00;;;;;;;-145.06;100.00;56503.69;10386471;28;20018;-70
2023/09/22 01:33:23;;;;;;;0.10;0.10;;;;;;;-145.06;100.00;56523.94;10382084;28;20056;-71
2023/09/22 01:38:23;;;;;;;0.00;0.00;;;;;;;-145.06;100.00;56513.81;10389236;28;20042;-72
2023/09/22 01:43:24;;;;;;;0.10;0.10;;;;;;;-145.06;100.00;56479.34;10386870;28;20030;-70
2023/09/22 01:48:24;;;;;;;0.10;0.10;;;;;;;-145.06;100.00;56519.88;10382894;28;20289;-71
2023/09/22 01:53:25;;;;;;;0.10;0.10;;;;;;;-145.06;100.00;56461.13;10386617;28;20243;-71
2023/09/22 01:58:25;;;;;;;0.10;0.10;;;;;;;-145.06;100.00;56483.41;10382334;28;20025;-71
2023/09/22 02:03:25;;;;;;;0.03;0.03;;;;;;;-145.06;100.00;56489.50;10386515;28;20477;-71
2023/09/22 02:08:26;;;;;;;0.10;0.10;;;;;;;-145.06;100.00;56465.16;10386226;28;20030;-71
2023/09/22 02:13:26;;;;;;;0.10;0.10;;;;;;;-145.06;100.00;56469.22;10388221;28;20034;-70
2023/09/22 02:18:27;;;;;;;0.10;0.10;;;;;;;-145.06;100.00;56457.06;10385697;28;20025;-70
2023/09/22 02:23:27;;;;;;;0.10;0.10;;;;;;;-145.06;100.00;56438.81;10390139;28;20391;-71
2023/09/22 02:28:27;;;;;;;0.10;0.10;;;;;;;-145.06;100.00;56434.78;10388436;28;20018;-71
2023/09/22 02:33:29;;;;;;;0.10;0.10;;;;;;;-145.06;100.00;56453.00;10386794;28;20034;-69
2023/09/22 02:38:29;;;;;;;0.10;0.10;;;;;;;-145.06;100.00;56432.75;10384187;28;20025;-70
2023/09/22 02:43:29;;;;;;;0.10;0.10;;;;;;;-145.06;100.00;56430.72;10388883;28;20489;-70
2023/09/22 02:48:29;;;;;;;0.10;0.10;;;;;;;-145.06;100.00;56442.88;10386586;28;20455;-70
2023/09/22 02:53:30;;;;;;;0.10;0.10;;;;;;;-145.06;100.00;56384.13;10396893;28;20447;-70
2023/09/22 02:58:30;;;;;;;0.10;0.10;;;;;;;-145.06;100.00;56390.19;10396806;28;20355;-71
2023/09/22 03:03:32;;;;;;;0.10;0.10;;;;;;;-145.06;100.00;56398.28;10396938;28;20493;-70
2023/09/22 03:08:33;;;;;;;0.00;0.00;;;;;;;-145.06;100.00;56394.25;10395748;28;20014;-72
2023/09/22 03:13:33;;;;;;;0.10;0.10;;;;;;;-145.06;100.00;56392.22;10399590;28;20499;-72
2023/09/22 03:18:33;;;;;;;0.10;0.10;;;;;;;-145.06;100.00;56376.00;10395313;28;20377;-72
2023/09/22 03:23:33;;;;;;;0.10;0.10;;;;;;;-145.06;100.00;56376.00;10396517;28;20423;-72
2023/09/22 03:28:34;;;;;;;0.10;0.10;;;;;;;-145.06;100.00;56396.28;10397166;28;20037;-72
2023/09/22 03:33:35;;;;;;;0.10;0.10;;;;;;;-145.06;100.00;56402.34;10398096;28;20093;-72
2023/09/22 03:38:36;;;;;;;0.00;0.00;;;;;;;-145.06;100.00;56384.13;10397358;28;20540;-72
2023/09/22 03:43:37;;;;;;;0.10;0.10;;;;;;;-145.06;100.00;56382.09;10397081;28;20124;-72
2023/09/22 03:48:37;;;;;;;0.10;0.10;;;;;;;-145.06;100.00;56373.97;10393701;28;20117;-72
2023/09/22 03:53:38;;;;;;;0.00;0.00;;;;;;;-145.06;100.00;56355.75;10397705;28;20026;-72
2023/09/22 03:58:39;;;;;;;0.10;0.10;;;;;;;-145.06;100.00;56392.22;10396135;28;20031;-71
2023/09/22 04:03:40;;;;;;;0.10;0.10;;;;;;;-145.06;100.00;56376.00;10393187;28;20032;-71
2023/09/22 04:08:40;;;;;;;0.10;0.10;;;;;;;-145.06;100.00;56380.06;10396573;28;20017;-70
2023/09/22 04:13:40;;;;;;;0.00;0.00;;;;;;;-145.06;100.00;56392.22;10382212;28;20022;-70
2023/09/22 04:18:41;;;;;;;0.10;0.10;;;;;;;-145.06;100.00;56365.88;10393946;28;20132;-71
2023/09/22 04:23:46;;;;;;;0.10;0.10;;;;;;;-145.06;100.00;56408.44;10391905;28;20034;-70
2023/09/22 04:28:46;;;;;;;0.00;0.00;;;;;;;-145.06;100.00;56396.28;10398336;28;20021;-69
2023/09/22 04:33:47;;;;;;;0.10;0.10;;;;;;;-145.06;100.00;56396.28;10394909;28;20129;-70
2023/09/22 04:38:50;;;;;;;0.10;0.10;;;;;;;-145.06;100.00;56390.19;10399224;28;20064;-69
2023/09/22 04:43:53;;;;;;;0.10;0.10;;;;;;;-145.06;100.00;56353.72;10399282;28;20521;-70
2023/09/22 04:48:55;;;;;;;0.10;0.10;;;;;;;-145.06;100.00;56367.91;10392577;28;20021;-70
2023/09/22 04:53:56;;;;;;;0.10;0.10;;;;;;;-145.06;100.00;56398.28;10391185;28;20033;-70
2023/09/22 04:58:57;;;;;;;0.10;0.10;;;;;;;-145.06;100.00;56384.13;10387690;28;20033;-69
2023/09/22 05:03:57;;;;;;;0.10;0.10;;;;;;;-145.06;100.00;56386.13;10396897;28;20116;-70
2023/09/22 05:08:57;;;;;;;0.10;0.10;;;;;;;-145.06;100.00;56398.28;10395817;28;20459;-71
2023/09/22 05:13:57;;;;;;;0.10;0.10;;;;;;;-145.06;100.00;56371.94;10396050;28;20022;-70
2023/09/22 05:18:59;;;;;;;0.10;0.10;;;;;;;-145.06;100.00;56428.69;10389118;28;20081;-71
2023/09/22 05:24:00;;;;;;;0.10;0.10;;;;;;;-145.06;100.00;56384.13;10393794;28;20033;-70
2023/09/22 05:29:01;;;;;;;0.10;0.10;;;;;;;-145.06;100.00;56365.88;10392285;28;20104;-70
2023/09/22 05:34:01;;;;;;;0.10;0.10;;;;;;;-145.06;100.00;56369.94;10397675;28;20096;-71
2023/09/22 05:39:02;;;;;;;0.10;0.10;;;;;;;-145.06;100.00;56367.91;10393541;28;20071;-70
2023/09/22 05:44:02;;;;;;;0.10;0.10;;;;;;;-145.06;100.00;56345.59;10395497;28;20137;-70
2023/09/22 05:49:05;;;;;;;0.10;0.10;;;;;;;-145.06;100.00;56341.56;10390851;28;20101;-70
2023/09/22 05:54:06;;;;;;;0.00;0.00;;;;;;;-145.06;100.00;56325.34;10395027;28;20111;-70
2023/09/22 05:59:06;;;;;;;0.10;0.10;;;;;;;-145.06;100.00;56410.47;10395475;28;20113;-71
2023/09/22 06:04:09;;;;;;;0.10;0.10;;;;;;;-145.06;100.00;56359.78;10386548;28;20024;-70
2023/09/22 06:09:11;;;;;;;0.10;0.10;;;;;;;-145.06;100.00;56351.69;10377565;28;20065;-70
2023/09/22 06:14:12;;;;;;;0.10;0.10;;;;;;;-145.06;100.00;56323.31;10385631;28;20025;-71
2023/09/22 06:19:12;;;;;;;0.10;0.10;;;;;;;-145.06;100.00;56347.63;10380277;28;20021;-70
2023/09/22 06:24:12;;;;;;;0.10;0.10;;;;;;;-145.06;100.00;56376.00;10385399;28;20013;-69
2023/09/22 06:29:13;;;;;;;0.10;0.10;;;;;;;-145.06;100.00;56373.97;10393693;28;20021;-70
2023/09/22 06:34:13;;;;;;;0.10;0.10;;;;;;;-145.06;100.00;56331.44;10384479;28;20025;-70
2023/09/22 06:39:13;;;;;;;0.10;0.10;;;;;;;-145.06;100.00;56317.25;10380183;28;20082;-69
2023/09/22 06:44:16;;;;;;;0.10;0.10;;;;;;;-145.06;100.00;56357.78;10390197;28;20337;-69
2023/09/22 06:49:16;;;;;;;0.10;0.10;;;;;;;-145.06;100.00;56359.78;10380786;28;20025;-70
2023/09/22 06:54:16;;;;;;;0.10;0.10;;;;;;;-145.06;100.00;56347.63;10391808;28;20022;-69
2023/09/22 06:59:17;;;;;;;0.00;0.00;;;;;;;-145.06;100.00;56331.44;10379439;28;20076;-70
2023/09/22 07:04:19;;;;;;;0.00;0.00;;;;;;;-145.06;100.00;56327.38;10392071;28;20049;-70
2023/09/22 07:09:19;;;;;;;0.10;0.10;;;;;;;-145.06;100.00;56333.44;10389017;28;20317;-69
2023/09/22 07:14:20;;;;;;;0.00;0.00;;;;;;;-145.06;100.00;56331.44;10375100;28;20029;-69
2023/09/22 07:19:21;;;;;;;0.10;0.10;;;;;;;-145.06;100.00;56323.31;10383727;28;20356;-70
2023/09/22 07:24:21;;;;;;;0.10;0.10;;;;;;;-145.06;100.00;56343.59;10389735;28;20108;-71
2023/09/22 07:29:22;;;;;;;0.10;0.10;;;;;;;-145.06;100.00;56345.59;10387552;28;20026;-71
2023/09/22 07:34:22;;;;;;;0.10;0.10;;;;;;;-145.06;100.00;56339.53;10389480;28;20022;-70
2023/09/22 07:39:22;;;;;;;0.07;0.07;;;;;;;-145.06;100.00;56339.53;10398300;28;20400;-70
2023/09/22 07:44:23;;;;;;;0.00;0.00;;;;;;;-145.06;100.00;56440.84;10401321;28;20029;-70
2023/09/22 07:49:23;;;;;;;0.00;0.00;;;;;;;-145.06;100.00;56536.09;10394570;28;20021;-70
2023/09/22 07:54:24;;;;;;;0.00;0.00;;;;;;;-145.06;100.00;56467.19;10389105;28;20025;-69
2023/09/22 07:59:25;;;;;;;0.10;0.10;;;;;;;-145.06;100.00;56517.84;10387710;28;20033;-70
2023/09/22 08:04:26;;;;;;;0.10;0.10;;;;;;;-145.06;100.00;56532.03;10394072;28;20445;-70
2023/09/22 08:09:27;;;;;;;0.00;0.00;;;;;;;-145.06;100.00;56495.56;10393897;28;20348;-70
2023/09/22 08:14:28;;;;;;;0.00;0.00;;;;;;;-145.06;100.00;56513.81;10387934;28;20061;-70
2023/09/22 08:19:28;;;;;;;0.00;0.00;;;;;;;-145.06;100.00;56613.09;10389933;28;20057;-70
2023/09/22 08:24:28;;;;;;;0.05;0.05;;;;;;;-145.06;100.00;56706.31;10392861;28;20453;-69
2023/09/22 08:29:29;;;;;;;0.10;0.10;;;;;;;-145.06;100.00;56675.94;10386834;28;20396;-70
2023/09/22 08:34:29;;;;;;;0.10;0.10;;;;;;;-145.06;100.00;56594.88;10388117;28;20397;-70
2023/09/22 08:39:30;;;;;;;0.10;0.10;;;;;;;-145.06;100.00;56570.53;10391591;28;20029;-70
2023/09/22 08:44:32;;;;;;;0.00;0.00;;;;;;;-145.06;100.00;56598.91;10381373;28;20492;-70
2023/09/22 08:49:32;;;;;;;0.10;0.10;;;;;;;-145.06;100.00;56586.75;10381020;28;20013;-70
2023/09/22 08:54:33;;;;;;;0.03;0.03;;;;;;;-145.06;100.00;56635.41;10383921;28;20018;-71
2023/09/22 08:59:33;;;;;;;0.10;0.10;;;;;;;-145.06;97.41;56667.81;10381526;28;20017;-70
2023/09/22 09:04:39;;;;;;;0.08;0.08;;;;;;;-145.06;95.29;56775.22;10383669;28;20492;-70
2023/09/22 09:09:44;;;;;;;0.10;0.10;;;;;;;-145.06;90.03;56787.41;10383054;28;20121;-70
2023/09/22 09:14:47;;;;;;;0.03;0.03;;;;;;;-145.06;86.01;56933.31;10385730;28;20104;-70
2023/09/22 09:20:01;;;;;;;0.00;0.00;;;;;;;-145.06;82.91;57054.91;10379077;28;20021;-70
2023/09/22 09:25:02;;;;;;;0.00;0.00;;;;;;;-145.06;82.76;57032.63;10383761;28;20057;-70
2023/09/22 09:30:13;;;;;;;0.10;0.10;;;;;;;-145.06;87.20;56937.38;10381896;28;20488;-70
2023/09/22 09:35:28;;;;;;;0.00;0.00;;;;;;;-145.06;86.53;56852.25;10384300;28;20094;-69
2023/09/22 09:40:28;;;;;;;0.00;0.00;;;;;;;-145.06;88.23;56896.84;10379405;28;20109;-69
2023/09/22 09:45:30;;;;;;;0.10;0.10;;;;;;;-145.06;84.89;56866.44;10379183;28;20022;-69
2023/09/22 09:50:34;;;;;;;0.00;0.00;;;;;;;-145.06;83.79;56860.34;10384056;28;20472;-70
2023/09/22 09:55:35;;;;;;;0.03;0.03;;;;;;;-145.06;84.35;56915.06;10384357;28;20029;-69
2023/09/22 10:00:35;;;;;;;0.00;0.00;;;;;;;-145.06;81.53;56945.47;10382904;28;20021;-69
2023/09/22 10:05:37;;;;;;;0.05;0.05;;;;;;;-145.06;82.32;56988.03;10384636;28;20125;-69
2023/09/22 10:10:38;;;;;;;0.00;0.00;;;;;;;-145.06;80.47;57044.78;10382987;28;20022;-69
2023/09/22 10:15:58;;;;;;;0.00;0.00;;;;;;;-145.06;84.81;56963.72;10383626;28;20025;-69
2023/09/22 10:20:58;;;;;;;0.00;0.00;;;;;;;-145.06;81.63;56967.75;10385624;28;20018;-69
2023/09/22 10:26:19;;;;;;;0.00;0.00;;;;;;;-145.06;83.12;56957.63;10384856;28;20025;-69
2023/09/22 10:31:20;;;;;;;0.00;0.00;;;;;;;-145.06;85.32;56919.13;10384291;28;20037;-69
2023/09/22 10:36:45;;;;;;;0.00;0.00;;;;;;;-145.06;83.90;56902.91;10383571;28;20036;-69
2023/09/22 10:42:00;;;;;;;0.00;0.00;;;;;;;-145.06;83.17;56955.59;10383187;28;20108;-69
2023/09/22 10:47:00;;;;;;;0.10;0.10;;;;;;;-145.06;83.74;56996.13;10384975;28;20047;-69
2023/09/22 10:52:01;;;;;;;0.00;0.00;;;;;;;-145.06;83.30;56975.88;10381598;28;20049;-69
2023/09/22 10:57:01;;;;;;;0.00;0.00;;;;;;;-145.06;85.40;56894.81;10383066;28;20013;-69
2023/09/22 11:02:01;;;;;;;0.00;0.00;;;;;;;-145.06;87.38;56909.00;10385183;28;20017;-69
2023/09/22 11:07:04;;;;;;;0.00;0.00;;;;;;;-145.06;87.63;56894.81;10382895;28;20022;-69
2023/09/22 11:12:05;;;;;;;0.00;0.00;;;;;;;-145.06;83.31;56943.44;10391074;28;20091;-69
2023/09/22 11:17:05;;;;;;;0.10;0.10;;;;;;;-145.06;84.89;56929.25;10392586;28;20125;-69
2023/09/22 11:22:06;;;;;;;0.10;0.10;;;;;;;-145.06;86.73;56911.03;10391340;28;20199;-68
2023/09/22 11:27:07;;;;;;;0.00;0.00;;;;;;;-145.06;88.31;56900.88;10391320;28;20029;-69
2023/09/22 11:32:08;;;;;;;0.10;0.10;;;;;;;-145.06;87.26;56896.84;10395082;28;20419;-69
2023/09/22 11:37:09;;;;;;;0.10;0.10;;;;;;;-145.06;87.68;56878.59;10394323;28;20024;-69
2023/09/22 11:42:09;;;;;;;0.00;0.00;;;;;;;-145.06;88.36;56898.84;10393176;28;20044;-69
2023/09/22 11:47:21;;;;;;;0.10;0.10;;;;;;;-145.06;87.14;56898.84;10393594;28;20060;-69
2023/09/22 11:52:31;;;;;;;0.00;0.00;;;;;;;-145.06;87.24;56915.06;10385909;28;20026;-71
2023/09/22 11:57:31;;;;;;;0.00;0.00;;;;;;;-145.06;86.35;56935.34;10392294;28;20033;-69
2023/09/22 12:02:31;;;;;;;0.10;0.10;;;;;;;-145.06;88.06;56892.78;10395876;28;20076;-69
2023/09/22 12:07:32;;;;;;;0.00;0.00;;;;;;;-145.06;90.96;56870.47;10393931;28;20432;-69
2023/09/22 12:12:32;;;;;;;0.00;0.00;;;;;;;-145.06;91.15;56884.66;10391350;28;20040;-69
2023/09/22 12:17:33;;;;;;;0.00;0.00;;;;;;;-145.06;92.25;56838.06;10386216;28;20770;-69
2023/09/22 12:22:33;;;;;;;0.10;0.10;;;;;;;-145.06;93.26;56836.03;10392786;28;20582;-69
2023/09/22 12:27:33;;;;;;;0.00;0.00;;;;;;;-145.06;91.05;56931.28;10389468;28;20026;-69
2023/09/22 12:32:33;;;;;;;0.00;0.00;;;;;;;-145.06;89.79;56935.34;10389368;28;20025;-68
2023/09/22 12:37:34;;;;;;;0.00;0.00;;;;;;;-145.06;86.50;56994.13;10389408;28;20022;-69
2023/09/22 12:42:35;;;;;;;0.00;0.00;;;;;;;-145.06;86.95;57020.47;10384522;28;20014;-69
2023/09/22 12:47:36;;;;;;;0.28;0.10;;;;;;;-145.06;82.14;57018.44;10388837;28;20112;-69
2023/09/22 12:52:37;;;;;;;0.00;0.00;;;;;;;-145.06;84.60;56967.75;10391097;28;20024;-69
2023/09/22 12:57:39;;;;;;;0.10;0.10;;;;;;;-145.06;86.87;56967.75;10389398;28;20021;-69
2023/09/22 13:02:39;;;;;;;0.00;0.00;;;;;;;-145.06;88.36;57016.41;10388788;28;20041;-69
2023/09/22 13:07:40;;;;;;;0.00;0.00;;;;;;;-145.06;85.66;57008.31;10386589;28;20049;-68
2023/09/22 13:12:42;;;;;;;0.00;0.00;;;;;;;-145.06;85.83;57008.31;10392733;28;20021;-69
2023/09/22 13:17:42;;;;;;;0.10;0.10;;;;;;;-145.06;85.58;56992.09;10383725;28;20695;-69
2023/09/22 13:22:44;;;;;;;0.00;0.00;;;;;;;-145.06;88.88;56943.44;10391226;28;20083;-69
2023/09/22 13:27:44;;;;;;;0.10;0.10;;;;;;;-145.06;84.67;56992.09;10382579;28;20413;-69
2023/09/22 13:32:44;;;;;;;0.00;0.00;;;;;;;-145.06;84.45;57024.50;10383029;28;20033;-69
2023/09/22 13:37:45;;;;;;;0.00;0.00;;;;;;;-145.06;84.70;56996.13;10383623;28;20094;-69
2023/09/22 13:42:46;;;;;;;0.00;0.00;;;;;;;-145.06;84.97;56992.09;10383010;28;20017;-68
2023/09/22 13:47:47;;;;;;;0.00;0.00;;;;;;;-145.06;86.88;56927.22;10378710;28;20040;-69
2023/09/22 13:52:47;;;;;;;0.00;0.00;;;;;;;-145.06;88.40;56894.81;10383903;28;20029;-69
2023/09/22 13:57:48;;;;;;;0.00;0.00;;;;;;;-145.06;81.53;56959.66;10384036;28;20022;-68
2023/09/22 14:02:48;;;;;;;0.00;0.00;;;;;;;-145.06;84.28;56977.91;10384876;28;20024;-69
2023/09/22 14:07:51;;;;;;;0.00;0.00;;;;;;;-145.06;79.64;57073.16;10382161;28;20080;-68
2023/09/22 14:12:51;;;;;;;0.00;0.00;;;;;;;-145.06;79.34;57042.75;10381531;28;20021;-69
2023/09/22 14:17:52;;;;;;;0.10;0.10;;;;;;;-145.06;77.04;57054.91;10382495;28;20022;-69
2023/09/22 14:22:53;;;;;;;0.00;0.00;;;;;;;-145.06;82.70;57006.28;10384911;28;20096;-69
2023/09/22 14:27:54;;;;;;;0.00;0.00;;;;;;;-145.06;79.20;57065.06;10391844;28;20423;-69
2023/09/22 14:32:54;;;;;;;0.00;0.00;;;;;;;-145.06;77.98;57067.06;10388739;28;20036;-69
2023/09/22 14:37:55;;;;;;;0.00;0.00;;;;;;;-145.06;77.76;57073.16;10387722;28;20030;-69
2023/09/22 14:42:56;;;;;;;0.08;0.08;;;;;;;-145.06;77.81;57042.75;10398500;28;20014;-68
2023/09/22 14:47:58;;;;;;;0.00;0.00;;;;;;;-145.06;81.84;57026.53;10405740;28;20025;-69
2023/09/22 14:52:59;;;;;;;0.10;0.10;;;;;;;-145.06;82.21;56967.75;10404126;28;20033;-69
2023/09/22 14:58:00;;;;;;;0.05;0.05;;;;;;;-145.06;81.29;56996.13;10406648;28;20059;-68
2023/09/22 15:03:01;;;;;;;0.00;0.00;;;;;;;-145.06;84.65;56963.72;10404774;28;20095;-69
2023/09/22 15:08:01;;;;;;;0.10;0.10;;;;;;;-145.06;85.62;56945.47;10406482;28;20116;-69
2023/09/22 15:13:02;;;;;;;0.08;0.08;;;;;;;-145.06;84.45;56943.44;10404442;28;20033;-69
2023/09/22 15:18:03;;;;;;;0.00;0.00;;;;;;;-145.06;86.48;56939.38;10401643;28;20490;-68
2023/09/22 15:23:03;;;;;;;0.10;0.10;;;;;;;-145.06;83.87;56971.81;10405515;28;20040;-69
2023/09/22 15:28:04;;;;;;;0.10;0.10;;;;;;;-145.06;84.83;56967.75;10405587;28;20036;-69
2023/09/22 15:33:04;;;;;;;0.10;0.10;;;;;;;-145.06;84.76;56943.44;10407397;28;20029;-69
2023/09/22 15:38:06;;;;;;;0.00;0.00;;;;;;;-145.06;84.02;56933.31;10406742;28;20611;-68
2023/09/22 15:43:06;;;;;;;0.00;0.00;;;;;;;-145.06;87.09;56870.47;10405320;28;20075;-69
2023/09/22 15:48:06;;;;;;;0.00;0.00;;;;;;;-145.06;86.35;56884.66;10401707;28;20025;-69
2023/09/22 15:53:07;;;;;;;0.10;0.10;;;;;;;-145.06;84.95;56911.03;10406399;28;20021;-68
2023/09/22 15:58:07;;;;;;;0.10;0.10;;;;;;;-145.06;86.95;56894.81;10405567;28;20096;-67
2023/09/22 16:03:08;;;;;;;0.00;0.00;;;;;;;-145.06;90.02;56880.63;10404939;28;20013;-68
2023/09/22 16:08:09;;;;;;;0.10;0.10;;;;;;;-145.06;90.90;56846.16;10406821;28;20103;-68
2023/09/22 16:13:10;;;;;;;0.00;0.00;;;;;;;-145.06;92.96;56890.75;10406391;28;20025;-69
2023/09/22 16:18:11;;;;;;;0.10;0.10;;;;;;;-145.06;92.20;56852.25;10401953;28;20352;-68
2023/09/22 16:23:12;;;;;;;0.00;0.00;;;;;;;-145.06;88.73;56888.72;10407441;28;20024;-68
2023/09/22 16:28:12;;;;;;;0.00;0.00;;;;;;;-145.06;86.63;56878.59;10406869;28;20017;-68
2023/09/22 16:33:12;;;;;;;0.00;0.00;;;;;;;-145.06;88.20;56831.97;10404737;28;20025;-68
2023/09/22 16:38:12;;;;;;;0.00;0.00;;;;;;;-145.06;90.43;56831.97;10408548;28;20017;-68
2023/09/22 16:43:13;;;;;;;0.10;0.10;;;;;;;-145.06;90.13;56809.69;10406913;28;20043;-68
2023/09/22 16:48:14;;;;;;;0.10;0.10;;;;;;;-145.06;92.89;56757.00;10402026;28;20071;-68
2023/09/22 16:53:15;;;;;;;0.10;0.10;;;;;;;-145.06;97.38;56732.66;10406457;28;20332;-68
2023/09/22 16:58:16;;;;;;;0.10;0.10;;;;;;;-145.06;99.42;56696.19;10406617;28;20022;-69
2023/09/22 17:03:16;;;;;;;0.00;0.00;;;;;;;-145.06;99.76;56694.16;10406542;28;20014;-69
2023/09/22 17:08:16;;;;;;;0.00;0.00;;;;;;;-145.06;100.00;56659.72;10390395;28;20036;-69
2023/09/22 17:13:17;;;;;;;0.10;0.10;;;;;;;-145.06;100.00;56627.28;10390104;28;20340;-69
2023/09/22 17:18:18;;;;;;;0.10;0.10;;;;;;;-145.06;100.00;56649.59;10394432;28;20410;-69
2023/09/22 17:23:18;;;;;;;0.10;0.10;;;;;;;-145.06;100.00;56609.06;10390083;28;20021;-69
2023/09/22 17:28:19;;;;;;;0.10;0.10;;;;;;;-145.06;100.00;56653.63;10385489;28;20013;-68
2023/09/22 17:33:19;;;;;;;0.10;0.10;;;;;;;-145.06;100.00;56617.16;10388456;28;20029;-69
2023/09/22 17:38:20;;;;;;;0.10;0.10;;;;;;;-145.06;100.00;56615.13;10389758;28;20025;-68
2023/09/22 17:43:20;;;;;;;0.10;0.10;;;;;;;-145.06;100.00;56615.13;10387640;28;20462;-69
2023/09/22 17:48:20;;;;;;;0.10;0.10;;;;;;;-145.06;100.00;56649.59;10385236;28;20071;-68
2023/09/22 17:53:22;;;;;;;0.10;0.10;;;;;;;-145.06;100.00;56639.44;10384753;28;20029;-68
2023/09/22 17:58:22;;;;;;;0.00;0.00;;;;;;;-145.06;100.00;56627.28;10389860;28;20048;-68
2023/09/22 18:03:23;;;;;;;0.00;0.00;;;;;;;-145.06;100.00;56631.34;10384683;28;20444;-68
2023/09/22 18:08:23;;;;;;;0.10;0.10;;;;;;;-145.06;100.00;56621.22;10389879;28;20017;-67
2023/09/22 18:13:23;;;;;;;0.10;0.10;;;;;;;-145.06;100.00;56617.16;10387527;28;20017;-68
2023/09/22 18:18:24;;;;;;;0.10;0.10;;;;;;;-145.06;100.00;56629.31;10384987;28;20095;-68
2023/09/22 18:23:25;;;;;;;0.10;0.10;;;;;;;-145.06;100.00;56611.06;10384003;28;20022;-69
2023/09/22 18:28:26;;;;;;;0.03;0.03;;;;;;;-145.06;100.00;56602.97;10389019;28;20022;-69
2023/09/22 18:33:28;;;;;;;0.10;0.10;;;;;;;-145.06;100.00;56594.88;10390184;28;20029;-69
2023/09/22 18:38:28;;;;;;;0.10;0.10;;;;;;;-145.06;100.00;56627.28;10389448;28;20017;-69
2023/09/22 18:43:28;;;;;;;0.00;0.00;;;;;;;-145.06;100.00;56627.28;10389590;28;20018;-68
2023/09/22 18:48:31;;;;;;;0.10;0.10;;;;;;;-145.06;100.00;56578.66;10385443;28;20708;-69
2023/09/22 18:53:32;;;;;;;0.10;0.10;;;;;;;-145.06;100.00;56586.75;10390763;28;20028;-69
2023/09/22 18:58:34;;;;;;;0.10;0.10;;;;;;;-145.06;100.00;56609.06;10392805;28;20112;-69
2023/09/22 19:03:35;;;;;;;0.10;0.10;;;;;;;-145.06;100.00;56566.50;10386739;28;20021;-69
2023/09/22 19:08:36;;;;;;;0.10;0.10;;;;;;;-145.06;100.00;56582.72;10388543;28;20455;-69
2023/09/22 19:13:36;;;;;;;0.10;0.10;;;;;;;-145.06;100.00;56580.69;10393433;28;20055;-69
2023/09/22 19:18:37;;;;;;;0.00;0.00;;;;;;;-145.06;100.00;56570.53;10386474;28;20075;-69
2023/09/22 19:23:42;;;;;;;0.10;0.10;;;;;;;-145.06;100.00;56534.06;10393767;28;20101;-69
2023/09/22 19:28:42;;;;;;;0.00;0.00;;;;;;;-145.06;100.00;56513.81;10390533;28;20026;-66
2023/09/22 19:33:44;;;;;;;0.10;0.10;;;;;;;-145.06;100.00;56519.88;10387101;28;20480;-66
2023/09/22 19:38:45;;;;;;;0.10;0.10;;;;;;;-145.06;100.00;56525.97;10398529;28;20025;-66
2023/09/22 19:43:45;;;;;;;0.10;0.10;;;;;;;-145.06;100.00;56493.53;10400181;28;20026;-66
2023/09/22 19:48:45;;;;;;;0.00;0.00;;;;;;;-145.06;100.00;56530.00;10394375;28;20056;-67
2023/09/22 19:53:46;;;;;;;0.10;0.10;;;;;;;-145.06;100.00;56493.53;10396997;28;20024;-66
2023/09/22 19:58:46;;;;;;;0.05;0.05;;;;;;;-145.06;100.00;56513.81;10395754;28;20508;-67
2023/09/22 20:03:49;;;;;;;0.10;0.10;;;;;;;-145.06;100.00;56463.16;10398318;28;20025;-67
2023/09/22 20:08:51;;;;;;;0.10;0.10;;;;;;;-145.06;100.00;56457.06;10391359;28;20060;-66
2023/09/22 20:13:52;;;;;;;0.10;0.10;;;;;;;-145.06;100.00;56455.03;10398176;28;20554;-66
2023/09/22 20:18:54;;;;;;;0.10;0.10;;;;;;;-145.06;100.00;56453.00;10400338;28;20068;-66
2023/09/22 20:23:54;;;;;;;0.10;0.10;;;;;;;-145.06;100.00;56418.56;10402959;28;20601;-67
2023/09/22 20:28:56;;;;;;;0.10;0.10;;;;;;;-145.06;100.00;56406.41;10399806;28;20035;-66
2023/09/22 20:33:56;;;;;;;0.10;0.10;;;;;;;-145.06;100.00;56369.94;10390589;28;20017;-67
2023/09/22 20:38:57;;;;;;;0.10;0.10;;;;;;;-145.06;100.00;56369.94;10403133;28;20465;-67
2023/09/22 20:43:57;;;;;;;0.05;0.05;;;;;;;-145.06;100.00;56394.25;10401661;28;20022;-66
2023/09/22 20:48:59;;;;;;;0.10;0.10;;;;;;;-145.06;100.00;56361.81;10403113;28;20030;-67
2023/09/22 20:53:59;;;;;;;0.10;0.10;;;;;;;-145.06;100.00;56341.56;10401947;28;20316;-67
2023/09/22 20:59:01;;;;;;;0.03;0.03;;;;;;;-145.06;100.00;56359.78;10391187;28;20022;-66
2023/09/22 21:04:02;;;;;;;0.03;0.03;;;;;;;-145.06;100.00;56339.53;10401064;28;20056;-66
2023/09/22 21:09:08;;;;;;;0.10;0.10;;;;;;;-145.06;100.00;56343.59;10399743;28;20029;-65
2023/09/22 21:14:09;;;;;;;0.10;0.10;;;;;;;-145.06;100.00;56319.25;10402986;28;20492;-66
2023/09/22 21:19:09;;;;;;;0.10;0.10;;;;;;;-145.06;100.00;56335.47;10387133;28;20056;-66
2023/09/22 21:24:09;;;;;;;0.10;0.10;;;;;;;-145.06;100.00;56288.88;10394339;28;20029;-65
2023/09/22 21:29:10;;;;;;;0.00;0.00;;;;;;;-145.06;100.00;56303.06;10390780;28;20088;-65
2023/09/22 21:34:10;;;;;;;0.10;0.10;;;;;;;-145.06;100.00;56282.78;10391182;28;20029;-67
2023/09/22 21:39:12;;;;;;;0.10;0.10;;;;;;;-145.06;100.00;56313.19;10393205;28;20099;-66
2023/09/22 21:44:15;;;;;;;0.10;0.10;;;;;;;-145.06;100.00;56296.97;10393052;28;20268;-67
2023/09/22 21:49:15;;;;;;;0.10;0.10;;;;;;;-145.06;100.00;56319.25;10392609;28;20036;-66
2023/09/22 21:54:15;;;;;;;0.10;0.10;;;;;;;-145.06;100.00;56301.03;10390687;28;20465;-67
2023/09/22 21:59:16;;;;;;;0.10;0.10;;;;;;;-145.06;100.00;56240.25;10392491;28;20018;-66
2023/09/22 22:04:16;;;;;;;0.10;0.10;;;;;;;-145.06;100.00;56256.44;10390546;28;20292;-66
2023/09/22 22:09:18;;;;;;;0.10;0.10;;;;;;;-145.06;100.00;56258.47;10392241;28;20296;-66
2023/09/22 22:14:18;;;;;;;0.10;0.10;;;;;;;-145.06;100.00;56250.38;10393918;28;20021;-66
2023/09/22 22:19:19;;;;;;;0.00;0.00;;;;;;;-145.06;100.00;56258.47;10390814;28;20017;-66
2023/09/22 22:24:21;;;;;;;0.10;0.10;;;;;;;-145.06;100.00;56260.50;10391852;28;20464;-66
2023/09/22 22:29:21;;;;;;;0.10;0.10;;;;;;;-145.06;100.00;56244.28;10390689;28;20464;-66
2023/09/22 22:34:22;;;;;;;0.00;0.00;;;;;;;-145.06;100.00;56236.19;10391856;28;20018;-66
2023/09/22 22:39:22;;;;;;;0.10;0.10;;;;;;;-145.06;100.00;56250.38;10391603;28;20022;-66